createdAt,value
2023-05-05T00:01:28.691Z,13.20
2023-05-05T00:03:56.939Z,13.30
2023-05-05T00:06:25.106Z,13.10
2023-05-05T00:08:53.305Z,13.20
2023-05-05T00:11:22.784Z,13.20
2023-05-05T00:13:51.915Z,13.20
2023-05-05T00:16:20.036Z,13.20
2023-05-05T00:18:48.211Z,13.20
2023-05-05T00:21:16.547Z,13.10
2023-05-05T00:23:44.836Z,12.90
2023-05-05T00:26:14.110Z,12.80
2023-05-05T00:28:45.542Z,12.80
2023-05-05T00:31:14.080Z,12.90
2023-05-05T00:33:42.275Z,12.90
2023-05-05T00:36:10.669Z,12.80
2023-05-05T00:38:39.055Z,12.90
2023-05-05T00:41:07.360Z,12.90
2023-05-05T00:43:36.136Z,12.90
2023-05-05T00:46:23.056Z,13.00
2023-05-05T00:48:51.943Z,12.90
2023-05-05T00:51:21.606Z,13.00
2023-05-05T00:53:49.778Z,13.00
2023-05-05T00:56:19.390Z,13.10
2023-05-05T00:58:48.001Z,13.00
2023-05-05T01:01:18.215Z,13.00
2023-05-05T01:03:46.403Z,13.00
2023-05-05T01:06:29.137Z,13.00
2023-05-05T01:09:05.544Z,13.00
2023-05-05T01:11:40.490Z,12.90
2023-05-05T01:14:15.828Z,12.80
2023-05-05T01:16:54.643Z,12.70
2023-05-05T01:20:03.947Z,12.60
2023-05-05T01:22:38.905Z,12.60
2023-05-05T01:25:27.594Z,12.50
2023-05-05T01:28:20.455Z,12.50
2023-05-05T01:31:08.949Z,12.50
2023-05-05T01:33:44.984Z,12.40
2023-05-05T01:36:22.728Z,12.50
2023-05-05T01:38:57.704Z,12.50
2023-05-05T01:41:30.866Z,12.30
2023-05-05T01:44:03.768Z,12.30
2023-05-05T01:46:34.452Z,12.20
2023-05-05T01:49:05.067Z,12.20
2023-05-05T01:51:34.037Z,12.20
2023-05-05T01:54:07.668Z,12.20
2023-05-05T01:56:38.880Z,12.20
2023-05-05T01:59:08.030Z,12.10
2023-05-05T02:01:40.841Z,12.10
2023-05-05T02:04:11.601Z,12.00
2023-05-05T02:06:42.327Z,11.90
2023-05-05T02:09:13.906Z,11.80
2023-05-05T02:11:42.486Z,11.80
2023-05-05T02:14:12.245Z,11.80
2023-05-05T02:16:43.706Z,11.70
2023-05-05T02:19:14.851Z,11.70
2023-05-05T02:21:43.538Z,11.70
2023-05-05T02:24:11.988Z,11.70
2023-05-05T02:26:41.937Z,11.70
2023-05-05T02:29:16.265Z,11.70
2023-05-05T02:31:48.875Z,11.60
2023-05-05T02:34:28.118Z,11.50
2023-05-05T02:36:59.294Z,11.50
2023-05-05T02:39:33.698Z,11.60
2023-05-05T02:42:10.094Z,11.60
2023-05-05T02:44:42.511Z,11.50
2023-05-05T02:47:12.197Z,11.40
2023-05-05T02:49:41.741Z,11.40
2023-05-05T02:52:10.004Z,11.30
2023-05-05T02:54:40.014Z,11.30
2023-05-05T02:57:20.998Z,11.40
2023-05-05T03:00:05.696Z,11.40
2023-05-05T03:02:45.626Z,11.40
2023-05-05T03:05:23.320Z,11.40
2023-05-05T03:07:56.903Z,11.30
2023-05-05T03:10:30.951Z,11.30
2023-05-05T03:13:04.151Z,11.30
2023-05-05T03:15:47.052Z,11.30
2023-05-05T03:18:19.521Z,11.30
2023-05-05T03:20:55.123Z,11.20
2023-05-05T03:23:23.469Z,11.20
2023-05-05T03:25:57.146Z,11.20
2023-05-05T03:28:38.176Z,11.20
2023-05-05T03:31:15.177Z,11.20
2023-05-05T03:33:43.547Z,11.20
2023-05-05T03:36:13.150Z,11.20
2023-05-05T03:38:41.585Z,11.20
2023-05-05T03:41:10.705Z,11.10
2023-05-05T03:43:39.369Z,11.20
2023-05-05T03:46:08.114Z,11.10
2023-05-05T03:48:36.480Z,11.10
2023-05-05T03:51:04.829Z,11.10
2023-05-05T03:53:36.965Z,11.10
2023-05-05T03:56:08.083Z,11.00
2023-05-05T03:58:36.279Z,11.10
2023-05-05T04:01:04.955Z,11.10
2023-05-05T04:03:34.386Z,11.10
2023-05-05T04:06:03.058Z,11.00
2023-05-05T04:08:32.926Z,11.10
2023-05-05T04:11:03.226Z,11.10
2023-05-05T04:13:33.464Z,11.20
2023-05-05T04:16:01.744Z,11.20
2023-05-05T04:18:30.454Z,11.30
2023-05-05T04:20:58.904Z,11.30
2023-05-05T04:23:27.809Z,11.30
2023-05-05T04:25:55.988Z,11.40
2023-05-05T04:28:26.493Z,11.50
2023-05-05T04:30:54.702Z,11.80
2023-05-05T04:33:22.855Z,12.00
2023-05-05T04:35:51.689Z,12.20
2023-05-05T04:38:21.256Z,12.30
2023-05-05T04:40:50.436Z,12.30
2023-05-05T04:43:19.768Z,12.40
2023-05-05T04:45:56.614Z,12.40
2023-05-05T04:48:28.742Z,12.40
2023-05-05T04:50:57.013Z,12.40
2023-05-05T04:53:25.414Z,12.30
2023-05-05T04:55:53.564Z,12.40
2023-05-05T04:58:21.814Z,12.40
2023-05-05T05:00:50.182Z,12.50
2023-05-05T05:03:21.635Z,12.60
2023-05-05T05:05:50.456Z,12.90
2023-05-05T05:08:18.864Z,13.20
2023-05-05T05:10:47.009Z,13.50
2023-05-05T05:13:15.246Z,13.70
2023-05-05T05:15:43.689Z,13.70
2023-05-05T05:18:12.212Z,13.70
2023-05-05T05:20:42.191Z,13.80
2023-05-05T05:23:10.400Z,14.10
2023-05-05T05:25:43.763Z,14.30
2023-05-05T05:28:13.183Z,14.30
2023-05-05T05:30:47.797Z,14.30
2023-05-05T05:33:16.370Z,14.40
2023-05-05T05:35:47.825Z,14.30
2023-05-05T05:38:17.572Z,14.00
2023-05-05T05:40:46.444Z,14.10
2023-05-05T05:43:15.282Z,14.50
2023-05-05T05:45:43.445Z,14.90
2023-05-05T05:48:12.118Z,15.30
2023-05-05T05:50:40.324Z,15.40
2023-05-05T05:53:10.100Z,15.20
2023-05-05T05:55:38.212Z,15.10
2023-05-05T05:58:09.613Z,15.30
2023-05-05T06:00:37.896Z,15.40
2023-05-05T06:03:09.769Z,15.70
2023-05-05T06:05:40.381Z,16.10
2023-05-05T06:08:10.246Z,16.10
2023-05-05T06:10:44.161Z,16.10
2023-05-05T06:13:17.024Z,16.00
2023-05-05T06:15:48.756Z,15.90
2023-05-05T06:18:17.839Z,15.90
2023-05-05T06:20:46.367Z,15.90
2023-05-05T06:23:17.754Z,16.00
2023-05-05T06:25:51.093Z,15.90
2023-05-05T06:28:19.731Z,15.80
2023-05-05T06:30:47.957Z,15.90
2023-05-05T06:33:16.624Z,16.20
2023-05-05T06:35:44.909Z,16.20
2023-05-05T06:38:13.263Z,16.10
2023-05-05T06:40:43.484Z,16.00
2023-05-05T06:43:11.739Z,16.10
2023-05-05T06:45:46.331Z,16.00
2023-05-05T06:48:14.802Z,15.80
2023-05-05T06:50:43.153Z,16.10
2023-05-05T06:53:11.323Z,16.70
2023-05-05T06:55:39.841Z,16.90
2023-05-05T06:58:09.502Z,16.80
2023-05-05T07:00:38.224Z,16.60
2023-05-05T07:03:06.389Z,16.40
2023-05-05T07:05:34.802Z,16.40
2023-05-05T07:08:02.908Z,16.60
2023-05-05T07:10:31.530Z,16.60
2023-05-05T07:12:59.846Z,16.70
2023-05-05T07:15:29.900Z,16.80
2023-05-05T07:17:58.682Z,16.90
2023-05-05T07:20:27.541Z,17.00
2023-05-05T07:22:55.946Z,17.20
2023-05-05T07:25:24.355Z,17.60
2023-05-05T07:27:52.631Z,17.70
2023-05-05T07:30:21.380Z,17.80
2023-05-05T07:32:51.226Z,18.00
2023-05-05T07:35:19.687Z,17.90
2023-05-05T07:37:48.154Z,18.60
2023-05-05T07:40:16.621Z,19.30
2023-05-05T07:42:45.068Z,19.50
2023-05-05T07:45:13.284Z,19.70
2023-05-05T07:47:41.562Z,20.00
2023-05-05T07:50:12.322Z,19.90
2023-05-05T07:55:11.657Z,20.00
2023-05-05T07:57:40.086Z,20.50
2023-05-05T08:00:09.904Z,20.70
2023-05-05T08:02:44.071Z,20.70
2023-05-05T08:05:14.096Z,20.50
2023-05-05T08:07:42.356Z,20.20
2023-05-05T08:10:12.524Z,20.70
2023-05-05T08:12:41.345Z,21.40
2023-05-05T08:15:10.398Z,21.90
2023-05-05T08:17:46.785Z,22.60
2023-05-05T08:20:16.567Z,23.30
2023-05-05T08:22:45.128Z,23.40
2023-05-05T08:25:14.038Z,22.50
2023-05-05T08:27:43.468Z,21.90
2023-05-05T08:30:12.595Z,21.40
2023-05-05T08:32:42.194Z,21.40
2023-05-05T08:35:11.813Z,22.00
2023-05-05T08:37:41.757Z,22.30
2023-05-05T08:40:13.979Z,22.10
2023-05-05T08:42:42.448Z,21.40
2023-05-05T08:45:11.594Z,21.00
2023-05-05T08:47:40.523Z,21.20
2023-05-05T08:50:12.011Z,21.80
2023-05-05T08:52:44.474Z,22.20
2023-05-05T08:55:21.468Z,21.90
2023-05-05T08:57:53.064Z,21.60
2023-05-05T09:00:21.902Z,21.30
2023-05-05T09:02:50.291Z,21.40
2023-05-05T09:05:18.831Z,21.30
2023-05-05T09:07:48.872Z,21.50
2023-05-05T09:10:17.139Z,21.90
2023-05-05T09:12:45.618Z,21.70
2023-05-05T09:15:16.467Z,21.40
2023-05-05T09:17:44.759Z,21.10
2023-05-05T09:20:15.267Z,20.90
2023-05-05T09:22:46.852Z,20.80
2023-05-05T09:25:17.905Z,20.80
2023-05-05T09:27:48.213Z,20.80
2023-05-05T09:30:18.046Z,20.80
2023-05-05T09:32:51.858Z,20.80
2023-05-05T09:35:21.283Z,20.60
2023-05-05T09:37:49.622Z,20.60
2023-05-05T09:40:21.290Z,20.60
2023-05-05T09:42:49.616Z,21.00
2023-05-05T09:45:28.478Z,20.70
2023-05-05T09:48:00.375Z,20.60
2023-05-05T09:50:30.920Z,21.00
2023-05-05T09:53:00.972Z,21.40
2023-05-05T09:55:31.969Z,21.70
2023-05-05T09:58:19.530Z,21.60
2023-05-05T10:00:48.044Z,21.50
2023-05-05T10:03:16.356Z,21.70
2023-05-05T10:05:52.338Z,21.40
2023-05-05T10:08:21.550Z,21.10
2023-05-05T10:10:54.190Z,21.20
2023-05-05T10:13:23.260Z,21.20
2023-05-05T10:15:53.560Z,21.20
2023-05-05T10:18:23.518Z,21.40
2023-05-05T10:20:57.257Z,21.40
2023-05-05T10:23:33.311Z,21.20
2023-05-05T10:26:06.652Z,20.90
2023-05-05T10:28:35.908Z,20.50
2023-05-05T10:31:16.497Z,20.70
2023-05-05T10:33:55.886Z,20.90
2023-05-05T10:36:25.543Z,21.10
2023-05-05T10:38:57.366Z,21.00
2023-05-05T10:41:27.674Z,20.90
2023-05-05T10:43:57.940Z,20.80
2023-05-05T10:46:27.842Z,20.70
2023-05-05T10:49:04.397Z,20.70
2023-05-05T10:51:42.427Z,20.60
2023-05-05T10:54:18.438Z,20.60
2023-05-05T10:56:49.037Z,20.60
2023-05-05T10:59:42.932Z,20.60
2023-05-05T11:02:25.572Z,20.60
2023-05-05T11:05:22.528Z,20.50
2023-05-05T11:07:52.395Z,20.50
2023-05-05T11:10:22.957Z,20.30
2023-05-05T11:13:21.766Z,20.30
2023-05-05T11:15:52.134Z,20.50
2023-05-05T11:18:31.721Z,20.60
2023-05-05T11:21:16.697Z,20.50
2023-05-05T11:23:50.321Z,20.40
2023-05-05T11:26:20.211Z,20.50
2023-05-05T11:29:11.349Z,20.80
2023-05-05T11:31:39.654Z,20.90
2023-05-05T11:34:28.060Z,20.90
2023-05-05T11:37:02.769Z,21.00
2023-05-05T11:39:53.944Z,21.00
2023-05-05T11:42:25.641Z,21.00
2023-05-05T11:44:55.948Z,21.10
2023-05-05T11:47:33.999Z,21.00
2023-05-05T11:50:23.436Z,21.20
2023-05-05T11:52:51.812Z,21.20
2023-05-05T11:55:24.041Z,21.40
2023-05-05T11:57:52.415Z,21.40
2023-05-05T12:00:33.411Z,21.50
2023-05-05T12:03:01.966Z,21.40
2023-05-05T12:05:30.234Z,21.30
2023-05-05T12:07:59.412Z,21.20
2023-05-05T12:10:28.178Z,21.10
2023-05-05T12:12:56.476Z,21.20
2023-05-05T12:15:36.104Z,21.10
2023-05-05T12:18:05.893Z,21.20
2023-05-05T12:20:36.744Z,20.90
2023-05-05T12:23:05.175Z,20.90
2023-05-05T12:25:37.054Z,20.80
2023-05-05T12:28:06.420Z,20.80
2023-05-05T12:30:36.402Z,20.80
2023-05-05T12:33:06.119Z,20.70
2023-05-05T12:35:35.856Z,20.70
2023-05-05T12:38:04.683Z,20.80
2023-05-05T12:40:47.158Z,21.00
2023-05-05T12:43:34.231Z,21.10
2023-05-05T12:46:06.580Z,21.20
2023-05-05T12:48:35.697Z,21.20
2023-05-05T12:51:15.111Z,21.20
2023-05-05T12:53:43.591Z,21.10
2023-05-05T12:56:31.231Z,21.10
2023-05-05T12:58:59.341Z,21.10
2023-05-05T13:01:29.214Z,21.20
2023-05-05T13:04:08.660Z,21.30
2023-05-05T13:06:37.711Z,21.40
2023-05-05T13:09:06.728Z,21.20
2023-05-05T13:11:38.761Z,20.90
2023-05-05T13:14:08.720Z,20.90
2023-05-05T13:16:38.361Z,21.10
2023-05-05T13:19:06.546Z,21.20
2023-05-05T13:21:34.914Z,21.10
2023-05-05T13:24:20.800Z,20.90
2023-05-05T13:26:52.622Z,20.90
2023-05-05T13:29:21.057Z,21.00
2023-05-05T13:31:50.940Z,21.00
2023-05-05T13:34:19.157Z,21.10
2023-05-05T13:36:47.364Z,21.10
2023-05-05T13:39:15.795Z,21.10
2023-05-05T13:41:44.757Z,21.10
2023-05-05T13:44:13.728Z,21.10
2023-05-05T13:46:42.782Z,21.20
2023-05-05T13:49:12.367Z,21.00
2023-05-05T13:51:40.706Z,20.90
2023-05-05T13:54:09.501Z,21.00
2023-05-05T13:56:37.765Z,21.00
2023-05-05T13:59:05.920Z,20.90
2023-05-05T14:01:34.115Z,20.90
2023-05-05T14:04:05.199Z,21.10
2023-05-05T14:06:35.803Z,21.10
2023-05-05T14:09:05.993Z,21.20
2023-05-05T14:11:34.870Z,21.10
2023-05-05T14:14:03.011Z,21.10
2023-05-05T14:16:31.291Z,21.20
2023-05-05T14:18:59.603Z,21.20
2023-05-05T14:21:27.834Z,21.20
2023-05-05T14:23:57.403Z,21.10
2023-05-05T14:26:25.842Z,21.20
2023-05-05T14:28:54.667Z,21.40
2023-05-05T14:31:22.868Z,21.20
2023-05-05T14:33:51.367Z,20.90
2023-05-05T14:36:19.737Z,21.00
2023-05-05T14:38:47.889Z,21.00
2023-05-05T14:41:17.358Z,21.00
2023-05-05T14:43:45.524Z,21.10
2023-05-05T14:46:13.840Z,21.20
2023-05-05T14:48:42.308Z,21.10
2023-05-05T14:51:10.579Z,20.90
2023-05-05T14:53:38.806Z,21.00
2023-05-05T14:56:07.543Z,21.10
2023-05-05T14:58:37.271Z,21.10
2023-05-05T15:01:05.827Z,21.00
2023-05-05T15:03:34.322Z,20.90
2023-05-05T15:06:03.228Z,20.90
2023-05-05T15:08:31.338Z,20.80
2023-05-05T15:10:59.441Z,20.90
2023-05-05T15:13:27.843Z,20.90
2023-05-05T15:15:57.390Z,20.90
2023-05-05T15:18:25.630Z,20.90
2023-05-05T15:20:53.818Z,21.10
2023-05-05T15:23:21.974Z,21.00
2023-05-05T15:25:50.119Z,21.00
2023-05-05T15:28:18.661Z,21.00
2023-05-05T15:30:47.124Z,21.00
2023-05-05T15:33:16.626Z,21.10
2023-05-05T15:35:44.869Z,21.00
2023-05-05T15:38:13.052Z,20.90
2023-05-05T15:40:41.215Z,20.80
2023-05-05T15:43:09.295Z,20.60
2023-05-05T15:45:38.394Z,20.70
2023-05-05T15:48:07.210Z,20.60
2023-05-05T15:50:36.762Z,20.50
2023-05-05T15:53:04.924Z,20.40
2023-05-05T15:55:33.240Z,20.30
2023-05-05T15:58:01.313Z,20.20
2023-05-05T16:00:31.324Z,20.30
2023-05-05T16:02:59.584Z,20.40
2023-05-05T16:05:27.759Z,20.50
2023-05-05T16:07:57.209Z,20.40
2023-05-05T16:10:25.572Z,20.50
2023-05-05T16:12:53.819Z,20.50
2023-05-05T16:15:22.230Z,20.50
2023-05-05T16:17:50.575Z,20.40
2023-05-05T16:20:18.943Z,20.40
2023-05-05T16:22:47.196Z,20.30
2023-05-05T16:25:18.291Z,20.20
2023-05-05T16:27:46.368Z,20.20
2023-05-05T16:30:16.144Z,20.30
2023-05-05T16:32:44.421Z,20.20
2023-05-05T16:35:12.862Z,20.30
2023-05-05T16:37:40.993Z,20.30
2023-05-05T16:40:10.964Z,20.20
2023-05-05T16:42:41.912Z,20.20
2023-05-05T16:45:12.331Z,20.10
2023-05-05T16:47:40.493Z,20.10
2023-05-05T16:50:09.819Z,19.90
2023-05-05T16:52:38.165Z,19.80
2023-05-05T16:55:06.968Z,19.80
2023-05-05T16:57:35.358Z,19.80
2023-05-05T17:00:05.903Z,19.70
2023-05-05T17:02:35.304Z,19.70
2023-05-05T17:05:03.540Z,19.70
2023-05-05T17:07:31.797Z,19.50
2023-05-05T17:09:59.959Z,19.40
2023-05-05T17:12:28.180Z,19.40
2023-05-05T17:14:56.422Z,19.40
2023-05-05T17:17:26.277Z,19.40
2023-05-05T17:19:54.566Z,19.30
2023-05-05T17:22:22.679Z,19.20
2023-05-05T17:24:50.842Z,19.20
2023-05-05T17:27:18.984Z,19.20
2023-05-05T17:29:47.432Z,19.10
2023-05-05T17:32:15.636Z,19.10
2023-05-05T17:34:45.649Z,19.00
2023-05-05T17:37:13.796Z,19.00
2023-05-05T17:39:41.921Z,19.00
2023-05-05T17:42:10.066Z,18.90
2023-05-05T17:44:38.150Z,18.80
2023-05-05T17:47:07.820Z,18.80
2023-05-05T17:49:36.038Z,18.70
2023-05-05T17:52:05.969Z,18.80
2023-05-05T17:54:34.192Z,18.70
2023-05-05T17:57:02.575Z,18.70
2023-05-05T17:59:32.547Z,18.70
2023-05-05T18:02:00.762Z,18.60
2023-05-05T18:04:28.969Z,18.50
2023-05-05T18:06:57.108Z,18.40
2023-05-05T18:09:27.566Z,18.40
2023-05-05T18:11:56.341Z,18.30
2023-05-05T18:14:24.713Z,18.30
2023-05-05T18:16:53.775Z,18.20
2023-05-05T18:19:23.541Z,18.30
2023-05-05T18:21:54.234Z,18.20
2023-05-05T18:24:22.482Z,18.10
2023-05-05T18:26:53.491Z,18.10
2023-05-05T18:29:22.652Z,18.00
2023-05-05T18:31:54.688Z,18.00
2023-05-05T18:34:23.085Z,18.00
2023-05-05T18:36:54.243Z,17.90
2023-05-05T18:39:25.258Z,17.90
2023-05-05T18:41:55.124Z,18.00
2023-05-05T18:44:23.426Z,18.20
2023-05-05T18:46:51.790Z,18.20
2023-05-05T18:49:24.842Z,18.20
2023-05-05T18:51:53.644Z,18.20
2023-05-05T18:54:22.114Z,18.10
2023-05-05T18:56:50.348Z,18.00
2023-05-05T18:59:20.452Z,17.90
2023-05-05T19:01:48.954Z,17.90
2023-05-05T19:04:30.276Z,17.80
2023-05-05T19:06:59.909Z,17.80
2023-05-05T19:09:28.478Z,17.80
2023-05-05T19:11:56.712Z,17.80
2023-05-05T19:14:26.670Z,17.80
2023-05-05T19:16:56.275Z,17.80
2023-05-05T19:19:24.751Z,17.70
2023-05-05T19:21:53.605Z,17.70
2023-05-05T19:24:21.861Z,17.70
2023-05-05T19:26:50.365Z,17.70
2023-05-05T19:29:18.760Z,17.60
2023-05-05T19:31:48.490Z,17.60
2023-05-05T19:34:16.697Z,17.60
2023-05-05T19:36:45.028Z,17.50
2023-05-05T19:39:15.641Z,17.40
2023-05-05T19:41:44.112Z,17.30
2023-05-05T19:44:12.389Z,17.20
2023-05-05T19:46:41.081Z,17.20
2023-05-05T19:49:10.869Z,17.20
2023-05-05T19:51:39.332Z,17.20
2023-05-05T19:54:07.870Z,17.30
2023-05-05T19:56:36.439Z,17.30
2023-05-05T19:59:06.298Z,17.20
2023-05-05T20:01:35.889Z,17.10
2023-05-05T20:04:04.662Z,17.00
2023-05-05T20:06:35.784Z,16.90
2023-05-05T20:09:04.153Z,16.90
2023-05-05T20:11:32.762Z,16.90
2023-05-05T20:14:01.125Z,16.70
2023-05-05T20:16:29.372Z,16.70
2023-05-05T20:18:57.972Z,16.70
2023-05-05T20:21:27.084Z,16.60
2023-05-05T20:23:56.790Z,16.60
2023-05-05T20:26:25.753Z,16.50
2023-05-05T20:28:54.264Z,16.40
2023-05-05T20:31:25.528Z,16.30
2023-05-05T20:33:53.849Z,16.30
2023-05-05T20:36:22.966Z,16.30
2023-05-05T20:38:51.890Z,16.30
2023-05-05T20:41:22.033Z,16.40
2023-05-05T20:43:50.585Z,16.40
2023-05-05T20:46:18.837Z,16.40
2023-05-05T20:48:46.987Z,16.30
2023-05-05T20:51:15.146Z,16.30
2023-05-05T20:53:43.445Z,16.20
2023-05-05T20:56:11.623Z,16.20
2023-05-05T20:58:41.297Z,16.10
2023-05-05T21:01:12.159Z,16.10
2023-05-05T21:03:40.696Z,16.00
2023-05-05T21:06:09.069Z,16.10
2023-05-05T21:08:39.498Z,16.10
2023-05-05T21:11:10.475Z,16.10
2023-05-05T21:13:40.248Z,15.90
2023-05-05T21:16:08.515Z,15.70
2023-05-05T21:18:36.816Z,15.50
2023-05-05T21:21:05.029Z,15.40
2023-05-05T21:23:33.300Z,15.40
2023-05-05T21:26:03.277Z,15.30
2023-05-05T21:28:31.436Z,15.30
2023-05-05T21:31:20.346Z,15.30
2023-05-05T21:33:49.658Z,15.20
2023-05-05T21:36:19.548Z,15.20
2023-05-05T21:38:47.932Z,15.10
2023-05-05T21:41:16.695Z,15.10
2023-05-05T21:43:44.957Z,15.20
2023-05-05T21:46:15.144Z,15.30
2023-05-05T21:48:43.612Z,15.20
2023-05-05T21:51:11.832Z,15.10
2023-05-05T21:53:40.962Z,15.00
2023-05-05T21:56:09.303Z,15.00
2023-05-05T21:58:37.811Z,14.90
2023-05-05T22:01:06.059Z,14.80
2023-05-05T22:03:36.957Z,14.80
2023-05-05T22:06:05.425Z,14.80
2023-05-05T22:08:33.627Z,14.60
2023-05-05T22:11:02.132Z,14.50
2023-05-05T22:13:30.311Z,14.40
2023-05-05T22:15:58.497Z,14.30
2023-05-05T22:18:26.697Z,14.20
2023-05-05T22:20:56.580Z,14.20
2023-05-05T22:23:24.870Z,14.10
2023-05-05T22:25:53.033Z,14.20
2023-05-05T22:28:22.130Z,14.10
2023-05-05T22:30:50.733Z,14.10
2023-05-05T22:33:19.131Z,13.90
2023-05-05T22:35:47.331Z,13.90
2023-05-05T22:38:16.933Z,13.80
2023-05-05T22:40:45.156Z,13.60
2023-05-05T22:43:13.496Z,13.60
2023-05-05T22:45:41.995Z,13.50
2023-05-05T22:48:10.353Z,13.30
2023-05-05T22:50:38.786Z,13.00
2023-05-05T22:53:07.845Z,12.80
2023-05-05T22:55:37.626Z,12.60
2023-05-05T22:58:06.165Z,12.50
2023-05-05T23:00:34.364Z,12.40
2023-05-05T23:03:03.009Z,12.50
2023-05-05T23:05:31.301Z,12.40
2023-05-05T23:08:01.231Z,12.30
2023-05-05T23:10:30.414Z,12.10
2023-05-05T23:13:00.239Z,12.00
2023-05-05T23:15:28.681Z,11.80
2023-05-05T23:17:56.862Z,11.70
2023-05-05T23:20:25.199Z,11.50
2023-05-05T23:22:53.300Z,11.30
2023-05-05T23:25:21.651Z,11.20
2023-05-05T23:27:49.664Z,11.10
2023-05-05T23:30:19.441Z,11.10
2023-05-05T23:32:47.596Z,11.00
2023-05-05T23:35:15.753Z,10.90
2023-05-05T23:37:44.097Z,10.80
2023-05-05T23:40:12.525Z,10.60
2023-05-05T23:42:40.646Z,10.60
2023-05-05T23:45:10.529Z,10.60
2023-05-05T23:47:40.357Z,10.60
2023-05-05T23:50:09.804Z,10.60
2023-05-05T23:52:37.993Z,10.50
2023-05-05T23:55:07.520Z,10.60
2023-05-05T23:57:36.662Z,10.60
